Time;durP1;ratioP1;P1;durP2;ratioP2;P2;SDS_P1;SDS_P2;PMS_P1;PMS_P2;Temp;Humidity;BMP_temperature;BMP_pressure;BME280_temperature;BME280_humidity;BME280_pressure;Samples;Min_cycle;Max_cycle;Signal;HPM_P1;HPM_P2
2022/06/29 00:01:16;;;;;;;8.13;6.43;;;;;;;19.35;68.88;95782.28;4995614;28;20034;-85
2022/06/29 00:03:42;;;;;;;9.23;7.07;;;;;;;19.31;69.09;95784.63;5012577;28;20044;-88
2022/06/29 00:06:07;;;;;;;10.57;7.25;;;;;;;19.35;69.35;95785.00;5028367;28;20025;-86
2022/06/29 00:08:33;;;;;;;11.70;6.80;;;;;;;19.31;68.31;95779.19;5013280;28;20468;-85
2022/06/29 00:10:58;;;;;;;10.63;7.47;;;;;;;19.30;68.50;95793.81;5011725;28;20029;-87
2022/06/29 00:13:23;;;;;;;7.40;6.70;;;;;;;19.32;68.22;95789.00;4995497;28;20109;-87
2022/06/29 00:15:49;;;;;;;11.20;6.60;;;;;;;19.32;68.32;95786.28;5028578;28;20459;-87
2022/06/29 00:18:14;;;;;;;7.22;6.45;;;;;;;19.33;68.44;95792.56;4995540;28;20021;-86
2022/06/29 00:20:40;;;;;;;10.32;6.47;;;;;;;19.36;68.21;95787.47;5029267;28;20021;-86
2022/06/29 00:23:06;;;;;;;9.30;6.97;;;;;;;19.37;68.22;95791.88;5029777;28;20450;-85
2022/06/29 00:25:31;;;;;;;7.70;6.45;;;;;;;19.33;68.35;95785.22;5029752;28;20022;-86
2022/06/29 00:27:57;;;;;;;8.38;6.93;;;;;;;19.30;68.89;95785.66;5011495;28;20029;-87
2022/06/29 00:30:23;;;;;;;10.27;6.85;;;;;;;19.25;68.77;95783.63;5029897;28;20022;-86
2022/06/29 00:32:48;;;;;;;8.95;6.40;;;;;;;19.23;68.45;95780.28;5028039;28;20025;-86
2022/06/29 00:35:13;;;;;;;8.93;6.28;;;;;;;19.21;68.93;95776.13;5029584;28;20026;-86
2022/06/29 00:37:39;;;;;;;6.60;5.97;;;;;;;19.19;69.30;95781.81;5028380;28;20068;-87
2022/06/29 00:40:05;;;;;;;7.43;6.47;;;;;;;19.17;68.99;95780.38;5029134;28;20076;-86
2022/06/29 00:42:31;;;;;;;11.57;7.13;;;;;;;19.09;69.33;95766.00;5028302;28;20405;-87
2022/06/29 00:44:57;;;;;;;7.05;6.35;;;;;;;19.07;69.70;95765.34;5011225;28;20416;-86
2022/06/29 00:47:22;;;;;;;7.75;6.95;;;;;;;19.06;69.53;95769.13;5011659;28;20033;-87
2022/06/29 00:49:48;;;;;;;7.68;6.70;;;;;;;19.01;69.33;95775.22;4995080;28;20049;-86
2022/06/29 00:52:14;;;;;;;8.27;6.40;;;;;;;18.98;69.20;95775.69;4995417;28;20029;-86
2022/06/29 00:54:54;;;;;;;9.50;6.75;;;;;;;18.95;69.71;95769.84;5027722;28;20025;-87
2022/06/29 00:57:22;;;;;;;8.57;7.05;;;;;;;18.91;69.54;95774.88;5011157;28;20063;-86
2022/06/29 00:59:49;;;;;;;8.90;7.28;;;;;;;18.84;70.06;95780.41;5028279;28;20163;-85
2022/06/29 01:02:16;;;;;;;9.75;7.03;;;;;;;18.80;70.12;95776.44;5027591;28;20487;-87
2022/06/29 01:04:42;;;;;;;9.38;6.50;;;;;;;18.75;70.46;95771.69;4995598;28;20560;-87
2022/06/29 01:07:08;;;;;;;7.50;6.70;;;;;;;18.72;70.51;95774.00;5028621;28;20124;-88
2022/06/29 01:09:33;;;;;;;8.40;6.68;;;;;;;18.76;70.58;95769.81;5011336;28;20124;-86
2022/06/29 01:11:59;;;;;;;9.23;5.90;;;;;;;18.78;70.07;95759.56;5011320;28;20056;-86
2022/06/29 01:14:25;;;;;;;7.78;6.28;;;;;;;18.77;69.92;95752.44;5011190;28;20109;-87
2022/06/29 01:16:50;;;;;;;9.30;5.85;;;;;;;18.81;69.97;95756.38;5011295;28;20029;-86
2022/06/29 01:19:16;;;;;;;8.27;6.63;;;;;;;18.79;69.53;95750.34;5010931;28;20025;-86
2022/06/29 01:21:41;;;;;;;10.25;6.38;;;;;;;18.82;69.85;95749.91;5029229;28;20457;-87
2022/06/29 01:24:07;;;;;;;8.38;6.10;;;;;;;18.78;69.74;95749.50;5010792;28;20033;-86
2022/06/29 01:26:32;;;;;;;7.75;6.38;;;;;;;18.79;69.72;95755.78;5011481;28;20165;-86
2022/06/29 01:28:57;;;;;;;7.15;6.45;;;;;;;18.80;70.32;95752.00;5010819;28;20049;-88
2022/06/29 01:31:23;;;;;;;11.10;6.68;;;;;;;18.81;69.85;95752.84;5027980;28;20434;-86
2022/06/29 01:33:48;;;;;;;7.07;6.38;;;;;;;18.74;70.32;95753.72;5028061;28;20021;-88
2022/06/29 01:36:14;;;;;;;9.10;7.15;;;;;;;18.69;70.28;95749.97;5011270;28;20064;-87
2022/06/29 01:38:40;;;;;;;12.65;8.23;;;;;;;18.64;70.41;95764.22;5011444;28;20026;-86
2022/06/29 01:41:08;;;;;;;10.70;8.57;;;;;;;18.59;70.82;95766.78;4994594;28;20124;-85
2022/06/29 01:43:34;;;;;;;9.55;7.47;;;;;;;18.64;70.78;95765.06;5012065;28;20026;-87
2022/06/29 01:45:59;;;;;;;11.48;7.88;;;;;;;18.69;70.96;95758.97;5027015;28;20405;-87
2022/06/29 01:48:25;;;;;;;8.95;7.10;;;;;;;18.67;70.22;95752.13;5027494;28;20507;-86
2022/06/29 01:50:50;;;;;;;11.63;8.02;;;;;;;18.65;70.42;95750.44;4993939;28;20117;-87
2022/06/29 01:53:16;;;;;;;7.90;7.07;;;;;;;18.69;70.05;95744.56;4994169;28;20060;-86
2022/06/29 01:55:43;;;;;;;9.35;7.82;;;;;;;18.64;69.37;95742.50;5027032;28;20026;-86
2022/06/29 01:58:09;;;;;;;8.40;6.85;;;;;;;18.58;68.86;95743.38;5027758;28;20047;-87
2022/06/29 02:00:34;;;;;;;9.32;6.57;;;;;;;18.47;68.79;95736.78;4994419;28;20034;-85
2022/06/29 02:03:00;;;;;;;6.75;6.00;;;;;;;18.51;68.20;95744.28;5026313;28;20034;-86
2022/06/29 02:05:25;;;;;;;6.57;5.80;;;;;;;18.36;68.54;95738.31;5027007;28;20036;-87
2022/06/29 02:07:51;;;;;;;6.40;5.22;;;;;;;18.34;68.17;95746.69;5009426;28;20056;-86
2022/06/29 02:10:16;;;;;;;10.00;5.57;;;;;;;18.20;68.75;95745.09;5026504;28;20408;-85
2022/06/29 02:12:41;;;;;;;6.43;5.30;;;;;;;18.13;68.58;95737.00;5026450;28;20026;-86
2022/06/29 02:15:08;;;;;;;8.45;5.47;;;;;;;18.17;68.09;95738.22;5009101;28;20029;-85
2022/06/29 02:17:34;;;;;;;6.70;5.63;;;;;;;18.11;68.06;95733.63;5027074;28;20375;-87
2022/06/29 02:19:59;;;;;;;5.72;5.13;;;;;;;18.16;68.19;95737.41;5026196;28;20061;-87
2022/06/29 02:22:25;;;;;;;6.40;5.28;;;;;;;18.15;67.93;95733.00;5010548;28;20412;-86
2022/06/29 02:24:50;;;;;;;5.82;4.72;;;;;;;18.18;68.12;95729.03;5009640;28;20044;-87
2022/06/29 02:27:16;;;;;;;5.85;4.85;;;;;;;18.24;67.85;95732.75;5026703;28;20064;-86
2022/06/29 02:29:41;;;;;;;5.65;4.90;;;;;;;18.24;67.63;95730.88;4993247;28;20099;-86
2022/06/29 02:34:51;;;;;;;6.47;5.28;;;;;;;18.32;67.72;95729.78;5028883;28;20118;-87
2022/06/29 02:37:16;;;;;;;5.18;4.57;;;;;;;18.26;67.33;95731.50;5026965;28;20022;-87
2022/06/29 02:39:42;;;;;;;6.40;4.95;;;;;;;18.24;67.33;95721.91;5009848;28;20030;-85
2022/06/29 02:42:09;;;;;;;6.00;4.85;;;;;;;18.18;67.44;95729.03;5009241;28;20496;-87
2022/06/29 02:44:35;;;;;;;6.50;4.72;;;;;;;18.19;67.24;95725.25;5010198;28;20037;-86
2022/06/29 02:47:00;;;;;;;6.35;5.00;;;;;;;18.07;66.90;95722.38;5026858;28;20025;-85
2022/06/29 02:49:26;;;;;;;7.88;5.28;;;;;;;18.05;67.30;95721.78;5029540;28;20025;-84
2022/06/29 02:51:53;;;;;;;5.85;4.75;;;;;;;18.04;67.27;95718.22;4995252;28;20447;-85
2022/06/29 02:54:19;;;;;;;7.47;4.60;;;;;;;18.02;66.68;95719.50;4993481;28;20104;-86
2022/06/29 02:56:44;;;;;;;5.85;4.57;;;;;;;18.03;67.02;95729.28;4993601;28;20033;-86
2022/06/29 02:59:10;;;;;;;5.47;4.40;;;;;;;18.00;67.04;95721.59;5008592;28;20459;-89
2022/06/29 03:01:35;;;;;;;6.35;4.68;;;;;;;18.00;66.64;95716.16;5009845;28;20409;-88
2022/06/29 03:04:00;;;;;;;7.53;5.00;;;;;;;17.97;66.93;95717.44;5025051;28;20025;-86
2022/06/29 03:06:26;;;;;;;5.25;4.45;;;;;;;17.97;67.04;95711.16;5025760;28;20033;-85
2022/06/29 03:08:51;;;;;;;8.32;5.97;;;;;;;17.99;66.60;95719.94;5009390;28;20032;-87
2022/06/29 03:11:17;;;;;;;6.45;5.00;;;;;;;17.98;67.01;95712.81;5025203;28;20032;-86
2022/06/29 03:13:42;;;;;;;6.25;5.10;;;;;;;17.95;66.93;95714.09;5011408;28;20029;-86
2022/06/29 03:16:08;;;;;;;6.95;5.22;;;;;;;17.96;66.81;95712.22;5011882;28;20057;-86
2022/06/29 03:18:33;;;;;;;7.78;5.07;;;;;;;17.96;66.71;95714.94;5010537;28;20028;-87
2022/06/29 03:20:59;;;;;;;8.43;5.13;;;;;;;17.90;66.63;95720.19;5008775;28;20095;-86
2022/06/29 03:23:24;;;;;;;9.93;5.63;;;;;;;17.92;67.06;95714.53;5009829;28;20029;-86
2022/06/29 03:25:50;;;;;;;13.48;6.05;;;;;;;17.88;67.56;95705.16;5024574;28;20033;-88
2022/06/29 03:28:15;;;;;;;8.38;6.68;;;;;;;17.91;68.01;95712.88;4992436;28;20407;-87
2022/06/29 03:30:41;;;;;;;9.90;7.35;;;;;;;17.86;68.47;95709.97;4992744;28;20025;-87
2022/06/29 03:33:06;;;;;;;12.73;7.82;;;;;;;17.84;68.53;95715.63;5026142;28;20079;-86
2022/06/29 03:35:33;;;;;;;9.60;6.68;;;;;;;17.89;68.87;95723.91;5009058;28;20036;-85
2022/06/29 03:37:58;;;;;;;18.50;13.95;;;;;;;17.88;68.43;95718.72;5008720;28;20463;-87
2022/06/29 03:40:24;;;;;;;14.13;8.13;;;;;;;17.88;68.08;95706.00;4992590;28;20021;-87
2022/06/29 03:42:49;;;;;;;14.18;8.13;;;;;;;17.88;68.72;95713.28;5008269;28;20557;-88
2022/06/29 03:45:14;;;;;;;14.25;7.85;;;;;;;17.86;68.56;95721.66;5026626;28;20030;-88
2022/06/29 03:47:40;;;;;;;13.70;7.35;;;;;;;17.89;69.22;95718.50;5025244;28;20025;-88
2022/06/29 03:50:09;;;;;;;13.40;8.35;;;;;;;17.89;68.86;95713.06;4992800;28;20025;-87
2022/06/29 03:52:34;;;;;;;16.75;8.90;;;;;;;17.89;69.47;95717.69;5009250;28;20026;-86
2022/06/29 03:55:00;;;;;;;15.18;8.00;;;;;;;17.83;69.31;95705.81;5008940;28;20022;-85
2022/06/29 03:57:25;;;;;;;14.68;8.45;;;;;;;17.90;69.00;95703.06;5010975;28;20033;-87
2022/06/29 03:59:51;;;;;;;18.77;8.18;;;;;;;17.94;69.51;95703.47;5025651;28;20471;-86
2022/06/29 04:02:16;;;;;;;12.43;8.43;;;;;;;17.99;68.87;95699.03;5010555;28;20045;-87
2022/06/29 04:04:43;;;;;;;12.23;8.38;;;;;;;18.03;69.08;95694.84;5009562;28;20615;-87
2022/06/29 04:07:08;;;;;;;10.43;8.35;;;;;;;18.08;68.91;95696.06;5010349;28;20155;-87
2022/06/29 04:09:34;;;;;;;11.35;9.07;;;;;;;18.01;69.36;95699.66;5027059;28;20057;-86
2022/06/29 04:11:59;;;;;;;14.70;8.88;;;;;;;17.88;69.41;95692.44;5010230;28;20021;-86
2022/06/29 04:14:26;;;;;;;14.32;8.75;;;;;;;17.83;69.93;95688.72;5027081;28;20527;-87
2022/06/29 04:16:52;;;;;;;13.13;9.32;;;;;;;17.83;69.59;95683.28;5008915;28;20022;-87
2022/06/29 04:19:17;;;;;;;15.00;9.20;;;;;;;17.80;69.82;95684.53;5009431;28;20482;-87
2022/06/29 04:21:43;;;;;;;15.55;9.38;;;;;;;17.91;69.44;95685.75;5009284;28;20025;-87
2022/06/29 04:24:08;;;;;;;14.15;9.40;;;;;;;17.95;68.79;95680.69;5009440;28;20026;-86
2022/06/29 04:26:34;;;;;;;18.80;10.45;;;;;;;17.81;69.75;95694.34;5007950;28;20018;-87
2022/06/29 04:28:59;;;;;;;16.33;8.57;;;;;;;17.91;69.60;95697.41;5008382;28;20072;-87
2022/06/29 04:31:24;;;;;;;19.20;10.13;;;;;;;18.09;69.51;95692.31;5008301;28;20455;-86
2022/06/29 04:33:50;;;;;;;13.15;9.02;;;;;;;18.21;68.36;95698.75;5010422;28;20032;-87
2022/06/29 04:36:15;;;;;;;17.98;9.63;;;;;;;18.40;67.80;95699.66;5024736;28;20026;-87
2022/06/29 04:38:41;;;;;;;12.52;9.40;;;;;;;18.57;67.98;95693.66;5028650;28;20029;-85
2022/06/29 04:41:06;;;;;;;13.40;8.93;;;;;;;18.65;67.63;95696.09;5011880;28;20030;-86
2022/06/29 04:43:32;;;;;;;14.02;8.57;;;;;;;18.77;67.57;95690.78;5027544;28;20026;-87
2022/06/29 04:48:41;;;;;;;15.77;8.70;;;;;;;18.77;67.67;95689.94;5029285;28;20403;-87
2022/06/29 04:51:07;;;;;;;13.18;8.65;;;;;;;18.64;67.30;95693.59;5011397;28;20018;-85
2022/06/29 04:53:33;;;;;;;14.13;9.18;;;;;;;18.77;67.39;95698.09;5029095;28;20030;-85
2022/06/29 04:55:58;;;;;;;13.77;8.40;;;;;;;18.71;67.74;95704.41;5011165;28;20026;-86
2022/06/29 04:58:24;;;;;;;12.57;8.40;;;;;;;18.56;68.21;95704.75;4995346;28;20027;-86
2022/06/29 05:00:49;;;;;;;14.40;8.25;;;;;;;18.53;68.63;95708.75;5010361;28;20543;-87
2022/06/29 05:03:14;;;;;;;10.82;8.10;;;;;;;18.60;69.30;95716.84;5011460;28;20025;-86
2022/06/29 05:05:40;;;;;;;10.25;8.23;;;;;;;18.67;68.01;95708.66;5030434;28;20021;-87
2022/06/29 05:08:05;;;;;;;10.50;8.27;;;;;;;18.83;68.52;95701.81;5012862;28;20022;-87
2022/06/29 05:10:31;;;;;;;8.93;7.68;;;;;;;19.06;67.20;95711.19;5030860;28;20025;-85
2022/06/29 05:12:57;;;;;;;9.32;7.65;;;;;;;19.25;66.87;95702.06;4994855;28;20037;-85
2022/06/29 05:15:22;;;;;;;10.05;8.05;;;;;;;19.44;66.11;95701.25;5011673;28;20029;-86
2022/06/29 05:17:48;;;;;;;8.63;7.70;;;;;;;19.63;65.68;95705.63;5010194;28;20036;-86
2022/06/29 05:20:13;;;;;;;9.35;7.88;;;;;;;19.81;64.96;95705.81;5028288;28;20029;-85
2022/06/29 05:22:39;;;;;;;8.93;8.00;;;;;;;19.77;65.19;95700.84;5010181;28;20113;-87
2022/06/29 05:25:05;;;;;;;9.40;7.63;;;;;;;19.71;65.05;95707.19;5027849;28;20041;-88
2022/06/29 05:27:30;;;;;;;11.75;8.77;;;;;;;19.83;65.19;95709.16;5010699;28;20083;-86
2022/06/29 05:29:56;;;;;;;11.82;8.80;;;;;;;19.89;64.33;95703.59;5026563;28;20049;-87
2022/06/29 05:32:21;;;;;;;10.05;8.65;;;;;;;20.11;64.33;95705.84;5010569;28;20110;-87
2022/06/29 05:34:47;;;;;;;11.35;8.98;;;;;;;20.26;63.48;95701.88;5027769;28;20036;-86
2022/06/29 05:37:12;;;;;;;11.40;9.15;;;;;;;20.29;63.01;95706.03;5010738;28;20030;-88
2022/06/29 05:39:37;;;;;;;12.18;9.23;;;;;;;20.45;62.41;95710.81;4993678;28;20034;-88
2022/06/29 05:42:03;;;;;;;12.52;8.55;;;;;;;20.51;62.51;95711.75;5010751;28;20044;-87
2022/06/29 05:44:29;;;;;;;10.95;8.68;;;;;;;20.63;63.50;95706.34;5010562;28;20036;-88
2022/06/29 05:46:54;;;;;;;13.00;10.20;;;;;;;20.77;63.20;95704.22;5010647;28;20037;-86
2022/06/29 05:49:20;;;;;;;13.20;9.27;;;;;;;20.71;63.55;95706.00;5009603;28;20036;-87
2022/06/29 05:51:45;;;;;;;12.73;9.98;;;;;;;20.70;63.42;95714.41;5010360;28;20476;-86
2022/06/29 05:54:11;;;;;;;11.70;9.48;;;;;;;20.63;63.48;95720.78;5028763;28;20025;-87
2022/06/29 05:56:36;;;;;;;9.40;8.40;;;;;;;20.79;63.76;95726.63;5027734;28;20029;-87
2022/06/29 05:59:02;;;;;;;12.82;8.50;;;;;;;20.97;62.25;95719.44;4994090;28;20026;-85
2022/06/29 06:01:28;;;;;;;11.10;7.90;;;;;;;21.15;61.62;95723.13;5026124;28;20026;-87
2022/06/29 06:03:53;;;;;;;9.70;8.25;;;;;;;21.12;62.00;95713.50;5010039;28;20036;-86
2022/06/29 06:06:18;;;;;;;11.00;8.60;;;;;;;21.10;61.03;95721.94;5009759;28;20140;-88
2022/06/29 06:08:44;;;;;;;10.32;8.52;;;;;;;21.33;61.13;95720.25;4993640;28;20065;-87
2022/06/29 06:11:09;;;;;;;13.20;9.88;;;;;;;21.28;61.50;95722.06;5009858;28;20033;-86
2022/06/29 06:13:35;;;;;;;10.27;8.50;;;;;;;21.49;60.65;95721.44;5026320;28;20079;-86
2022/06/29 06:16:00;;;;;;;18.38;9.52;;;;;;;21.70;61.33;95718.31;5009956;28;20079;-87
2022/06/29 06:18:26;;;;;;;17.02;8.38;;;;;;;21.85;62.00;95715.94;5027351;28;20029;-88
2022/06/29 06:20:51;;;;;;;17.77;8.85;;;;;;;22.02;60.62;95706.94;5028608;28;20484;-88
2022/06/29 06:23:17;;;;;;;18.45;9.07;;;;;;;21.99;61.06;95710.16;5011957;28;20412;-87
2022/06/29 06:25:42;;;;;;;10.73;8.82;;;;;;;22.04;61.41;95707.53;5027208;28;20018;-88
2022/06/29 06:28:08;;;;;;;14.23;8.70;;;;;;;22.10;60.37;95701.09;5010991;28;20484;-88
2022/06/29 06:30:33;;;;;;;9.52;8.30;;;;;;;22.16;59.95;95703.94;5010475;28;20045;-87
2022/06/29 06:32:59;;;;;;;11.85;8.50;;;;;;;22.33;59.10;95698.50;5027179;28;20107;-87
2022/06/29 06:35:24;;;;;;;12.65;8.35;;;;;;;22.35;59.62;95696.34;5010434;28;20026;-86
2022/06/29 06:37:51;;;;;;;10.25;8.25;;;;;;;22.19;59.27;95687.88;5011552;28;20034;-88
2022/06/29 06:43:01;;;;;;;10.75;8.10;;;;;;;22.20;59.14;95692.28;5026401;28;20091;-87
2022/06/29 06:45:26;;;;;;;8.98;7.90;;;;;;;22.40;58.37;95687.41;5025565;28;20026;-88
2022/06/29 06:47:52;;;;;;;8.43;7.63;;;;;;;22.60;58.83;95696.00;4992945;28;20029;-88
2022/06/29 06:50:18;;;;;;;11.15;8.20;;;;;;;22.78;60.42;95685.88;5009390;28;20040;-87
2022/06/29 06:52:43;;;;;;;9.90;8.05;;;;;;;22.95;59.76;95687.78;5026643;28;20385;-88
2022/06/29 06:55:09;;;;;;;9.05;8.02;;;;;;;22.99;59.03;95682.66;5009544;28;20033;-87
2022/06/29 06:57:34;;;;;;;11.38;8.68;;;;;;;22.96;58.62;95686.72;5009096;28;20085;-88
2022/06/29 06:59:59;;;;;;;10.77;8.57;;;;;;;22.94;60.09;95686.97;5009349;28;20026;-86
2022/06/29 07:02:25;;;;;;;11.98;8.10;;;;;;;23.02;59.00;95685.69;5008762;28;20026;-87
2022/06/29 07:04:50;;;;;;;9.02;7.80;;;;;;;23.06;59.61;95691.50;5027213;28;20127;-88
2022/06/29 07:07:16;;;;;;;11.93;9.40;;;;;;;22.62;59.38;95686.75;5025412;28;20464;-88
2022/06/29 07:09:44;;;;;;;10.13;8.20;;;;;;;22.63;58.88;95683.75;4997290;28;20041;-87
2022/06/29 07:12:09;;;;;;;10.23;8.63;;;;;;;22.78;59.04;95679.63;5033744;28;20116;-87
2022/06/29 07:14:36;;;;;;;11.10;7.47;;;;;;;23.04;59.49;95675.34;5031309;28;20045;-87
2022/06/29 07:17:02;;;;;;;7.80;7.00;;;;;;;23.24;57.41;95675.91;5030281;28;20569;-87
2022/06/29 07:19:27;;;;;;;11.98;7.07;;;;;;;23.29;57.63;95659.56;5024435;28;20096;-87
2022/06/29 07:21:54;;;;;;;11.20;7.35;;;;;;;23.47;56.26;95658.47;5027293;28;20370;-87
2022/06/29 07:24:19;;;;;;;11.70;6.45;;;;;;;23.52;56.58;95663.16;5025998;28;20029;-88
2022/06/29 07:26:45;;;;;;;9.27;7.32;;;;;;;23.42;55.96;95658.38;4992311;28;20025;-87
2022/06/29 07:29:11;;;;;;;8.55;6.63;;;;;;;23.53;56.06;95657.44;5026490;28;20033;-87
2022/06/29 07:31:36;;;;;;;8.48;6.85;;;;;;;23.76;57.60;95663.75;5008072;28;20048;-86
2022/06/29 07:34:02;;;;;;;9.55;6.57;;;;;;;23.92;56.93;95652.94;5027380;28;20021;-87
2022/06/29 07:36:29;;;;;;;8.32;6.60;;;;;;;23.64;57.45;95654.81;5007871;28;20085;-89
2022/06/29 07:38:54;;;;;;;9.18;7.72;;;;;;;23.36;57.20;95657.44;4992729;28;20462;-88
2022/06/29 07:41:20;;;;;;;10.27;7.35;;;;;;;23.41;57.46;95653.97;5025829;28;20472;-87
2022/06/29 07:43:46;;;;;;;9.13;6.57;;;;;;;23.58;58.01;95657.50;5025149;28;20030;-86
2022/06/29 07:46:11;;;;;;;8.45;6.65;;;;;;;23.58;58.18;95649.31;5008425;28;20032;-87
2022/06/29 07:48:36;;;;;;;5.60;4.72;;;;;;;23.80;54.47;95651.19;5025808;28;20063;-87
2022/06/29 07:51:02;;;;;;;6.78;5.05;;;;;;;23.74;52.76;95656.84;5025449;28;20029;-88
2022/06/29 07:53:27;;;;;;;4.72;4.28;;;;;;;23.67;51.74;95654.31;5007804;28;20022;-86
2022/06/29 07:55:53;;;;;;;12.32;4.50;;;;;;;23.57;53.21;95655.00;5008873;28;20033;-87
2022/06/29 07:58:18;;;;;;;7.55;4.90;;;;;;;23.36;53.80;95660.19;5024338;28;20037;-87
2022/06/29 08:00:44;;;;;;;8.25;5.68;;;;;;;23.33;55.22;95652.47;5008724;28;20030;-87
2022/06/29 08:03:10;;;;;;;11.20;6.13;;;;;;;23.49;55.36;95648.06;5024510;28;20021;-87
2022/06/29 08:05:35;;;;;;;8.40;5.50;;;;;;;23.75;54.90;95651.13;5027186;28;20034;-86
2022/06/29 08:08:01;;;;;;;12.35;6.05;;;;;;;23.92;53.94;95647.47;5024750;28;20030;-87
2022/06/29 08:10:26;;;;;;;6.63;5.18;;;;;;;24.25;54.75;95645.63;5024518;28;20029;-86
2022/06/29 08:12:52;;;;;;;9.20;5.68;;;;;;;24.10;54.50;95651.78;5027786;28;20021;-87
2022/06/29 08:15:17;;;;;;;11.05;5.35;;;;;;;24.18;53.92;95642.28;5011477;28;20029;-87
2022/06/29 08:17:48;;;;;;;8.60;5.15;;;;;;;24.06;54.44;95634.19;5012525;28;20048;-87
2022/06/29 08:20:14;;;;;;;6.95;4.97;;;;;;;24.04;54.15;95637.19;5029457;28;20072;-88
2022/06/29 08:22:39;;;;;;;7.45;4.85;;;;;;;24.27;55.17;95642.63;5011616;28;20118;-87
2022/06/29 08:25:06;;;;;;;6.97;4.97;;;;;;;24.37;53.85;95648.22;5008665;28;20045;-86
2022/06/29 08:27:33;;;;;;;6.20;4.60;;;;;;;24.62;53.87;95645.97;5003244;28;20041;-85
2022/06/29 08:29:59;;;;;;;8.52;4.85;;;;;;;24.86;52.67;95645.59;4997993;28;20057;-84
2022/06/29 08:32:24;;;;;;;5.82;4.32;;;;;;;24.61;48.22;95647.03;5027585;28;20037;-85
2022/06/29 08:34:49;;;;;;;9.52;4.03;;;;;;;24.42;50.15;95641.97;5028148;28;20228;-84
2022/06/29 08:37:15;;;;;;;7.22;4.50;;;;;;;24.44;50.35;95646.09;5027454;28;20037;-84
2022/06/29 08:39:40;;;;;;;5.18;4.20;;;;;;;24.70;50.29;95639.97;5011636;28;20080;-84
2022/06/29 08:42:06;;;;;;;6.35;4.47;;;;;;;24.71;50.47;95636.16;5010950;28;20029;-84
2022/06/29 08:44:32;;;;;;;6.55;4.25;;;;;;;24.96;51.11;95639.34;4995035;28;20036;-84
2022/06/29 08:47:00;;;;;;;6.05;4.68;;;;;;;24.46;51.08;95637.59;5010632;28;20064;-86
2022/06/29 08:49:26;;;;;;;8.05;4.53;;;;;;;24.56;50.96;95642.34;4975279;28;20054;-84
2022/06/29 08:51:52;;;;;;;6.13;4.13;;;;;;;24.82;49.84;95642.53;5013210;28;20053;-85
2022/06/29 08:54:17;;;;;;;6.13;4.00;;;;;;;24.75;49.60;95639.19;5004350;28;20037;-85
2022/06/29 08:56:42;;;;;;;4.57;3.40;;;;;;;24.83;46.77;95629.66;4995618;28;20075;-84
2022/06/29 08:59:08;;;;;;;4.00;3.50;;;;;;;25.16;47.39;95639.50;5009273;28;20420;-85
2022/06/29 09:01:34;;;;;;;4.40;3.53;;;;;;;25.43;46.95;95634.97;5026595;28;20052;-83
2022/06/29 09:03:59;;;;;;;5.57;3.72;;;;;;;25.16;48.47;95633.19;5007223;28;20033;-85
2022/06/29 09:06:24;;;;;;;9.23;3.90;;;;;;;25.11;46.62;95633.16;5023547;28;20408;-84
2022/06/29 09:08:50;;;;;;;5.85;3.75;;;;;;;25.04;47.42;95633.38;5025075;28;20428;-84
2022/06/29 09:11:28;;;;;;;4.10;3.63;;;;;;;25.21;47.24;95625.00;5026309;28;20029;-84
2022/06/29 09:14:13;;;;;;;5.45;3.95;;;;;;;25.49;46.00;95628.41;5027625;28;20033;-84
2022/06/29 09:16:57;;;;;;;4.82;3.70;;;;;;;25.75;46.63;95617.53;5028156;28;20021;-84
2022/06/29 09:19:26;;;;;;;6.07;3.78;;;;;;;26.02;48.91;95619.25;5024438;28;20022;-85
2022/06/29 09:21:52;;;;;;;5.03;4.05;;;;;;;26.23;47.19;95622.03;5022250;28;20539;-84
2022/06/29 09:24:25;;;;;;;5.50;3.58;;;;;;;26.37;44.95;95629.78;5023026;28;20091;-84
2022/06/29 09:26:58;;;;;;;4.40;4.00;;;;;;;26.37;44.99;95624.28;5006362;28;20041;-85
2022/06/29 09:29:28;;;;;;;5.00;3.80;;;;;;;26.33;43.94;95623.16;5020854;28;20079;-84
2022/06/29 09:32:06;;;;;;;5.07;4.10;;;;;;;26.40;43.17;95623.72;4990082;28;20599;-85
2022/06/29 09:34:38;;;;;;;8.07;3.92;;;;;;;26.43;44.73;95625.94;5023559;28;20452;-85
2022/06/29 09:37:06;;;;;;;5.95;3.80;;;;;;;26.46;43.73;95619.03;5020349;28;20037;-85
2022/06/29 09:39:39;;;;;;;8.25;4.70;;;;;;;26.42;44.07;95624.28;5008955;28;20025;-84
2022/06/29 09:42:14;;;;;;;5.90;4.18;;;;;;;26.54;45.21;95619.34;5009100;28;20060;-84
2022/06/29 09:44:40;;;;;;;9.35;3.85;;;;;;;26.56;46.98;95613.56;5027479;28;20026;-83
2022/06/29 09:47:12;;;;;;;5.28;3.75;;;;;;;26.76;43.65;95617.41;5023193;28;20029;-84
2022/06/29 09:49:37;;;;;;;;;;;;;;;26.85;43.88;95612.16;5027004;28;20030;-83
2022/06/29 09:52:04;;;;;;;7.47;4.07;;;;;;;26.74;41.70;95612.19;5043021;28;20280;-84
2022/06/29 09:54:40;;;;;;;4.78;3.60;;;;;;;26.72;43.10;95617.13;5022423;28;20039;-84
2022/06/29 09:57:07;;;;;;;4.70;3.60;;;;;;;26.84;41.83;95611.31;5024181;28;20021;-83
2022/06/29 10:02:34;;;;;;;4.60;3.50;;;;;;;26.94;43.50;95599.47;5025081;28;20102;-86
2022/06/29 10:05:20;;;;;;;5.35;4.05;;;;;;;26.86;42.58;95598.13;5012238;28;20069;-84
2022/06/29 10:07:53;;;;;;;4.97;3.63;;;;;;;26.87;43.61;95598.94;5008354;28;20504;-85
2022/06/29 10:10:20;;;;;;;8.40;3.70;;;;;;;26.95;44.01;95595.63;5022361;28;20034;-85
2022/06/29 10:15:56;;;;;;;7.90;4.47;;;;;;;27.12;48.03;95580.75;5007742;28;20041;-85
2022/06/29 10:18:50;;;;;;;7.03;3.90;;;;;;;27.28;45.02;95592.53;5005984;28;20052;-85
2022/06/29 10:21:20;;;;;;;6.32;3.20;;;;;;;27.21;42.12;95579.09;5006163;28;20037;-85
2022/06/29 10:23:49;;;;;;;6.25;3.72;;;;;;;27.31;40.56;95591.16;4989953;28;20034;-83
2022/06/29 10:26:35;;;;;;;5.00;2.95;;;;;;;27.27;41.75;95583.47;5005818;28;20436;-85
2022/06/29 10:29:09;;;;;;;6.20;3.22;;;;;;;27.33;40.50;95594.44;5007054;28;20053;-86
2022/06/29 10:32:07;;;;;;;5.00;3.03;;;;;;;27.33;39.65;95583.41;5008880;28;20057;-85
2022/06/29 10:34:34;;;;;;;4.18;3.50;;;;;;;27.29;40.44;95577.69;4977835;28;20042;-84
2022/06/29 10:37:02;;;;;;;4.78;3.15;;;;;;;27.35;41.67;95575.72;5007894;28;20026;-84
2022/06/29 10:39:48;;;;;;;5.72;3.30;;;;;;;27.30;39.22;95568.28;5007345;28;20022;-84
2022/06/29 10:45:25;;;;;;;3.78;3.17;;;;;;;27.16;38.72;95570.84;5024901;28;20587;-85
2022/06/29 10:47:56;;;;;;;4.47;2.90;;;;;;;27.16;38.86;95568.09;5010898;28;20128;-85
2022/06/29 10:50:25;;;;;;;6.82;3.17;;;;;;;27.15;39.62;95564.50;5006855;28;20030;-83
2022/06/29 10:52:52;;;;;;;5.93;3.00;;;;;;;27.08;41.03;95560.41;5006261;28;20030;-84
2022/06/29 10:55:18;;;;;;;9.55;3.85;;;;;;;27.17;42.32;95566.13;4988789;28;20055;-84
2022/06/29 10:57:44;;;;;;;4.40;3.58;;;;;;;27.30;41.65;95553.69;5006137;28;20037;-85
2022/06/29 11:00:34;;;;;;;6.72;3.45;;;;;;;27.50;40.05;95559.09;5005064;28;20192;-86
2022/06/29 11:03:22;;;;;;;4.57;3.05;;;;;;;27.57;39.13;95561.56;5006127;28;20054;-84
2022/06/29 11:14:02;;;;;;;5.95;2.30;;;;;;;27.83;36.85;95544.09;5005873;28;20037;-83
2022/06/29 11:16:35;;;;;;;4.05;2.03;;;;;;;27.88;32.81;95544.06;5005279;28;20026;-84
2022/06/29 11:19:01;;;;;;;4.38;2.30;;;;;;;27.94;34.15;95544.88;5007298;28;20432;-85
2022/06/29 11:21:28;;;;;;;3.08;2.20;;;;;;;27.97;33.44;95542.34;5004822;28;20060;-84
2022/06/29 11:24:04;;;;;;;3.45;2.30;;;;;;;28.01;34.75;95540.66;4990043;28;20029;-84
2022/06/29 11:26:30;;;;;;;2.78;1.90;;;;;;;28.17;34.25;95536.94;5004590;28;20038;-86
2022/06/29 11:28:59;;;;;;;5.22;2.00;;;;;;;28.21;34.40;95530.56;5005323;28;20026;-82
2022/06/29 11:31:25;;;;;;;6.47;1.83;;;;;;;28.36;30.97;95535.19;5005137;28;20153;-85
2022/06/29 11:33:52;;;;;;;3.58;1.70;;;;;;;28.38;30.79;95512.81;5005099;28;20038;-84
2022/06/29 11:36:26;;;;;;;2.72;1.80;;;;;;;28.46;30.71;95516.88;4989681;28;20025;-84
2022/06/29 11:38:56;;;;;;;3.28;1.85;;;;;;;28.56;33.17;95518.72;4988599;28;20033;-84
2022/06/29 11:41:24;;;;;;;10.55;2.53;;;;;;;28.59;33.74;95515.38;5022400;28;20088;-84
2022/06/29 11:44:02;;;;;;;5.82;2.00;;;;;;;28.64;33.09;95523.63;5004671;28;20022;-84
2022/06/29 11:46:27;;;;;;;3.92;2.10;;;;;;;28.65;30.08;95522.50;5006541;28;20080;-83
2022/06/29 11:51:51;;;;;;;5.10;2.10;;;;;;;28.58;30.00;95516.50;5009162;28;20049;-84
2022/06/29 11:54:17;;;;;;;6.47;2.03;;;;;;;28.66;31.19;95518.63;5009554;28;20420;-84
2022/06/29 11:56:43;;;;;;;4.10;2.10;;;;;;;28.77;31.49;95513.00;5008255;28;20562;-86
2022/06/29 11:59:10;;;;;;;8.60;2.20;;;;;;;28.80;30.87;95520.69;4977154;28;20080;-85